sensor_id;sensor_type;location;lat;lon;timestamp;P1;durP1;ratioP1;P2;durP2;ratioP2
50012;SDS011;35901;48.694;9.476;2023-09-07T00:00:48;8.40;;;7.67;;
50012;SDS011;35901;48.694;9.476;2023-09-07T00:03:14;8.87;;;8.07;;
50012;SDS011;35901;48.694;9.476;2023-09-07T00:05:40;8.53;;;7.70;;
50012;SDS011;35901;48.694;9.476;2023-09-07T00:08:07;9.27;;;8.47;;
50012;SDS011;35901;48.694;9.476;2023-09-07T00:10:33;9.33;;;8.43;;
50012;SDS011;35901;48.694;9.476;2023-09-07T00:13:04;9.00;;;8.13;;
50012;SDS011;35901;48.694;9.476;2023-09-07T00:15:30;8.67;;;7.87;;
50012;SDS011;35901;48.694;9.476;2023-09-07T00:18:01;8.20;;;7.50;;
50012;SDS011;35901;48.694;9.476;2023-09-07T00:20:27;8.57;;;7.77;;
50012;SDS011;35901;48.694;9.476;2023-09-07T00:22:53;10.03;;;8.33;;
50012;SDS011;35901;48.694;9.476;2023-09-07T00:25:19;10.03;;;9.13;;
50012;SDS011;35901;48.694;9.476;2023-09-07T00:27:45;8.50;;;7.77;;
50012;SDS011;35901;48.694;9.476;2023-09-07T00:30:11;8.30;;;7.50;;
50012;SDS011;35901;48.694;9.476;2023-09-07T00:32:37;8.90;;;7.63;;
50012;SDS011;35901;48.694;9.476;2023-09-07T00:35:04;8.70;;;7.80;;
50012;SDS011;35901;48.694;9.476;2023-09-07T00:37:31;9.73;;;8.73;;
50012;SDS011;35901;48.694;9.476;2023-09-07T00:39:57;9.03;;;8.33;;
50012;SDS011;35901;48.694;9.476;2023-09-07T00:42:22;8.23;;;7.47;;
50012;SDS011;35901;48.694;9.476;2023-09-07T00:44:48;9.03;;;8.23;;
50012;SDS011;35901;48.694;9.476;2023-09-07T00:47:14;8.40;;;7.67;;
50012;SDS011;35901;48.694;9.476;2023-09-07T00:49:41;8.67;;;7.80;;
50012;SDS011;35901;48.694;9.476;2023-09-07T00:52:07;8.40;;;7.70;;
50012;SDS011;35901;48.694;9.476;2023-09-07T00:54:35;8.33;;;7.57;;
50012;SDS011;35901;48.694;9.476;2023-09-07T00:57:03;8.00;;;7.30;;
50012;SDS011;35901;48.694;9.476;2023-09-07T00:59:31;8.73;;;7.93;;
50012;SDS011;35901;48.694;9.476;2023-09-07T01:01:57;8.60;;;7.80;;
50012;SDS011;35901;48.694;9.476;2023-09-07T01:04:23;9.00;;;8.20;;
50012;SDS011;35901;48.694;9.476;2023-09-07T01:06:55;8.60;;;7.80;;
50012;SDS011;35901;48.694;9.476;2023-09-07T01:09:26;8.83;;;8.03;;
50012;SDS011;35901;48.694;9.476;2023-09-07T01:11:55;8.97;;;8.17;;
50012;SDS011;35901;48.694;9.476;2023-09-07T01:14:21;8.53;;;7.73;;
50012;SDS011;35901;48.694;9.476;2023-09-07T01:16:49;9.53;;;8.63;;
50012;SDS011;35901;48.694;9.476;2023-09-07T01:19:15;8.93;;;8.13;;
50012;SDS011;35901;48.694;9.476;2023-09-07T01:21:41;9.73;;;8.83;;
50012;SDS011;35901;48.694;9.476;2023-09-07T01:24:08;9.20;;;8.33;;
50012;SDS011;35901;48.694;9.476;2023-09-07T01:26:35;8.30;;;7.50;;
50012;SDS011;35901;48.694;9.476;2023-09-07T01:29:06;8.80;;;8.03;;
50012;SDS011;35901;48.694;9.476;2023-09-07T01:31:37;8.30;;;7.60;;
50012;SDS011;35901;48.694;9.476;2023-09-07T01:34:04;8.80;;;8.00;;
50012;SDS011;35901;48.694;9.476;2023-09-07T01:39:04;8.40;;;7.60;;
50012;SDS011;35901;48.694;9.476;2023-09-07T01:41:33;8.47;;;7.77;;
50012;SDS011;35901;48.694;9.476;2023-09-07T01:43:59;9.00;;;8.13;;
50012;SDS011;35901;48.694;9.476;2023-09-07T01:46:25;9.10;;;8.30;;
50012;SDS011;35901;48.694;9.476;2023-09-07T01:48:51;10.03;;;9.03;;
50012;SDS011;35901;48.694;9.476;2023-09-07T01:51:17;8.87;;;8.07;;
50012;SDS011;35901;48.694;9.476;2023-09-07T01:53:42;9.17;;;8.30;;
50012;SDS011;35901;48.694;9.476;2023-09-07T01:56:08;9.10;;;8.20;;
50012;SDS011;35901;48.694;9.476;2023-09-07T01:58:34;10.63;;;9.73;;
50012;SDS011;35901;48.694;9.476;2023-09-07T02:01:02;10.23;;;9.00;;
50012;SDS011;35901;48.694;9.476;2023-09-07T02:03:27;10.77;;;9.73;;
50012;SDS011;35901;48.694;9.476;2023-09-07T02:05:53;10.77;;;9.77;;
50012;SDS011;35901;48.694;9.476;2023-09-07T02:08:19;10.10;;;9.13;;
50012;SDS011;35901;48.694;9.476;2023-09-07T02:10:45;10.47;;;8.90;;
50012;SDS011;35901;48.694;9.476;2023-09-07T02:13:11;9.90;;;8.47;;
50012;SDS011;35901;48.694;9.476;2023-09-07T02:15:37;12.20;;;11.10;;
50012;SDS011;35901;48.694;9.476;2023-09-07T02:18:04;9.67;;;8.77;;
50012;SDS011;35901;48.694;9.476;2023-09-07T02:20:32;9.00;;;8.20;;
50012;SDS011;35901;48.694;9.476;2023-09-07T02:22:58;10.63;;;9.57;;
50012;SDS011;35901;48.694;9.476;2023-09-07T02:25:24;10.33;;;9.33;;
50012;SDS011;35901;48.694;9.476;2023-09-07T02:27:50;8.17;;;7.47;;
50012;SDS011;35901;48.694;9.476;2023-09-07T02:30:15;8.67;;;7.87;;
50012;SDS011;35901;48.694;9.476;2023-09-07T02:32:42;9.67;;;8.77;;
50012;SDS011;35901;48.694;9.476;2023-09-07T02:35:08;9.00;;;8.20;;
50012;SDS011;35901;48.694;9.476;2023-09-07T02:37:35;9.10;;;8.30;;
50012;SDS011;35901;48.694;9.476;2023-09-07T02:40:03;8.67;;;7.97;;
50012;SDS011;35901;48.694;9.476;2023-09-07T02:42:33;7.90;;;7.20;;
50012;SDS011;35901;48.694;9.476;2023-09-07T02:44:59;8.47;;;7.67;;
50012;SDS011;35901;48.694;9.476;2023-09-07T02:47:25;8.13;;;7.40;;
50012;SDS011;35901;48.694;9.476;2023-09-07T02:49:51;8.80;;;8.00;;
50012;SDS011;35901;48.694;9.476;2023-09-07T02:52:16;8.20;;;7.40;;
50012;SDS011;35901;48.694;9.476;2023-09-07T02:54:42;10.13;;;8.97;;
50012;SDS011;35901;48.694;9.476;2023-09-07T02:57:08;8.70;;;7.90;;
50012;SDS011;35901;48.694;9.476;2023-09-07T02:59:33;9.47;;;8.23;;
50012;SDS011;35901;48.694;9.476;2023-09-07T03:01:59;10.83;;;9.83;;
50012;SDS011;35901;48.694;9.476;2023-09-07T03:04:25;9.30;;;8.40;;
50012;SDS011;35901;48.694;9.476;2023-09-07T03:06:51;10.17;;;9.20;;
50012;SDS011;35901;48.694;9.476;2023-09-07T03:09:16;9.87;;;9.03;;
50012;SDS011;35901;48.694;9.476;2023-09-07T03:11:45;10.20;;;9.20;;
50012;SDS011;35901;48.694;9.476;2023-09-07T03:14:11;11.13;;;10.13;;
50012;SDS011;35901;48.694;9.476;2023-09-07T03:16:37;11.23;;;10.20;;
50012;SDS011;35901;48.694;9.476;2023-09-07T03:19:04;10.87;;;9.87;;
50012;SDS011;35901;48.694;9.476;2023-09-07T03:21:30;10.90;;;9.90;;
50012;SDS011;35901;48.694;9.476;2023-09-07T03:23:56;9.47;;;8.50;;
50012;SDS011;35901;48.694;9.476;2023-09-07T03:26:23;9.17;;;8.30;;
50012;SDS011;35901;48.694;9.476;2023-09-07T03:28:49;9.50;;;8.57;;
50012;SDS011;35901;48.694;9.476;2023-09-07T03:31:15;9.47;;;8.60;;
50012;SDS011;35901;48.694;9.476;2023-09-07T03:33:41;9.50;;;8.67;;
50012;SDS011;35901;48.694;9.476;2023-09-07T03:36:06;9.73;;;8.93;;
50012;SDS011;35901;48.694;9.476;2023-09-07T03:38:34;9.97;;;8.97;;
50012;SDS011;35901;48.694;9.476;2023-09-07T03:41:07;11.47;;;10.47;;
50012;SDS011;35901;48.694;9.476;2023-09-07T03:43:33;10.30;;;9.40;;
50012;SDS011;35901;48.694;9.476;2023-09-07T03:45:59;10.30;;;9.40;;
50012;SDS011;35901;48.694;9.476;2023-09-07T03:48:24;8.97;;;8.17;;
50012;SDS011;35901;48.694;9.476;2023-09-07T03:50:50;8.37;;;7.67;;
50012;SDS011;35901;48.694;9.476;2023-09-07T03:53:16;8.93;;;8.13;;
50012;SDS011;35901;48.694;9.476;2023-09-07T03:55:43;8.50;;;7.70;;
50012;SDS011;35901;48.694;9.476;2023-09-07T03:58:11;9.07;;;8.27;;
50012;SDS011;35901;48.694;9.476;2023-09-07T04:00:39;9.13;;;8.23;;
50012;SDS011;35901;48.694;9.476;2023-09-07T04:03:09;8.03;;;7.33;;
50012;SDS011;35901;48.694;9.476;2023-09-07T04:05:38;9.30;;;8.40;;
50012;SDS011;35901;48.694;9.476;2023-09-07T04:08:04;10.20;;;9.30;;
50012;SDS011;35901;48.694;9.476;2023-09-07T04:10:30;8.87;;;8.07;;
50012;SDS011;35901;48.694;9.476;2023-09-07T04:12:56;10.03;;;9.13;;
50012;SDS011;35901;48.694;9.476;2023-09-07T04:15:22;10.23;;;9.13;;
50012;SDS011;35901;48.694;9.476;2023-09-07T04:17:49;10.20;;;9.23;;
50012;SDS011;35901;48.694;9.476;2023-09-07T04:20:15;10.00;;;9.00;;
50012;SDS011;35901;48.694;9.476;2023-09-07T04:22:42;10.60;;;9.50;;
50012;SDS011;35901;48.694;9.476;2023-09-07T04:25:08;9.20;;;8.30;;
50012;SDS011;35901;48.694;9.476;2023-09-07T04:27:33;10.73;;;9.63;;
50012;SDS011;35901;48.694;9.476;2023-09-07T04:29:59;9.83;;;8.83;;
50012;SDS011;35901;48.694;9.476;2023-09-07T04:32:25;10.10;;;9.10;;
50012;SDS011;35901;48.694;9.476;2023-09-07T04:34:53;9.30;;;8.37;;
50012;SDS011;35901;48.694;9.476;2023-09-07T04:37:20;10.53;;;9.47;;
50012;SDS011;35901;48.694;9.476;2023-09-07T04:39:45;9.70;;;8.80;;
50012;SDS011;35901;48.694;9.476;2023-09-07T04:42:13;9.50;;;8.60;;
50012;SDS011;35901;48.694;9.476;2023-09-07T04:44:40;9.20;;;8.30;;
50012;SDS011;35901;48.694;9.476;2023-09-07T04:47:06;8.80;;;8.00;;
50012;SDS011;35901;48.694;9.476;2023-09-07T04:49:32;9.93;;;8.93;;
50012;SDS011;35901;48.694;9.476;2023-09-07T04:51:57;9.37;;;8.17;;
50012;SDS011;35901;48.694;9.476;2023-09-07T04:54:24;8.07;;;7.37;;
50012;SDS011;35901;48.694;9.476;2023-09-07T04:56:49;8.00;;;7.30;;
50012;SDS011;35901;48.694;9.476;2023-09-07T04:59:15;8.20;;;7.43;;
50012;SDS011;35901;48.694;9.476;2023-09-07T05:01:41;8.57;;;7.77;;
50012;SDS011;35901;48.694;9.476;2023-09-07T05:04:07;10.03;;;8.77;;
50012;SDS011;35901;48.694;9.476;2023-09-07T05:06:33;8.23;;;7.43;;
50012;SDS011;35901;48.694;9.476;2023-09-07T05:09:03;7.23;;;6.53;;
50012;SDS011;35901;48.694;9.476;2023-09-07T05:11:29;8.03;;;7.33;;
50012;SDS011;35901;48.694;9.476;2023-09-07T05:13:55;8.73;;;8.03;;
50012;SDS011;35901;48.694;9.476;2023-09-07T05:19:10;7.40;;;6.80;;
50012;SDS011;35901;48.694;9.476;2023-09-07T05:21:36;7.70;;;7.00;;
50012;SDS011;35901;48.694;9.476;2023-09-07T05:24:01;6.90;;;6.30;;
50012;SDS011;35901;48.694;9.476;2023-09-07T05:26:27;6.33;;;5.83;;
50012;SDS011;35901;48.694;9.476;2023-09-07T05:28:54;6.37;;;5.87;;
50012;SDS011;35901;48.694;9.476;2023-09-07T05:31:19;6.60;;;6.10;;
50012;SDS011;35901;48.694;9.476;2023-09-07T05:33:45;7.10;;;6.50;;
50012;SDS011;35901;48.694;9.476;2023-09-07T05:36:11;6.23;;;5.73;;
50012;SDS011;35901;48.694;9.476;2023-09-07T05:38:37;6.50;;;6.00;;
50012;SDS011;35901;48.694;9.476;2023-09-07T05:41:03;7.00;;;6.47;;
50012;SDS011;35901;48.694;9.476;2023-09-07T05:43:29;7.00;;;6.30;;
50012;SDS011;35901;48.694;9.476;2023-09-07T05:45:55;8.67;;;6.17;;
50012;SDS011;35901;48.694;9.476;2023-09-07T05:48:34;6.47;;;5.70;;
50012;SDS011;35901;48.694;9.476;2023-09-07T05:50:59;5.90;;;5.40;;
50012;SDS011;35901;48.694;9.476;2023-09-07T05:53:25;5.47;;;4.93;;
50012;SDS011;35901;48.694;9.476;2023-09-07T05:55:51;5.43;;;4.97;;
50012;SDS011;35901;48.694;9.476;2023-09-07T05:58:17;5.00;;;4.60;;
50012;SDS011;35901;48.694;9.476;2023-09-07T06:00:43;5.60;;;5.20;;
50012;SDS011;35901;48.694;9.476;2023-09-07T06:03:09;5.13;;;4.60;;
50012;SDS011;35901;48.694;9.476;2023-09-07T06:05:35;5.13;;;4.73;;
50012;SDS011;35901;48.694;9.476;2023-09-07T06:08:02;4.93;;;4.53;;
50012;SDS011;35901;48.694;9.476;2023-09-07T06:10:29;4.30;;;4.00;;
50012;SDS011;35901;48.694;9.476;2023-09-07T06:12:56;4.20;;;3.90;;
50012;SDS011;35901;48.694;9.476;2023-09-07T06:15:21;4.20;;;3.83;;
50012;SDS011;35901;48.694;9.476;2023-09-07T06:17:47;4.23;;;3.83;;
50012;SDS011;35901;48.694;9.476;2023-09-07T06:23:05;3.90;;;3.60;;
50012;SDS011;35901;48.694;9.476;2023-09-07T06:25:31;4.30;;;3.90;;
50012;SDS011;35901;48.694;9.476;2023-09-07T06:27:59;4.23;;;3.83;;
50012;SDS011;35901;48.694;9.476;2023-09-07T06:30:24;4.50;;;4.00;;
50012;SDS011;35901;48.694;9.476;2023-09-07T06:32:50;4.53;;;4.23;;
50012;SDS011;35901;48.694;9.476;2023-09-07T06:35:17;4.43;;;4.13;;
50012;SDS011;35901;48.694;9.476;2023-09-07T06:37:44;4.80;;;4.40;;
50012;SDS011;35901;48.694;9.476;2023-09-07T06:40:11;5.17;;;4.53;;
50012;SDS011;35901;48.694;9.476;2023-09-07T06:42:38;4.77;;;3.63;;
50012;SDS011;35901;48.694;9.476;2023-09-07T06:45:10;4.47;;;4.07;;
50012;SDS011;35901;48.694;9.476;2023-09-07T06:47:36;4.27;;;3.87;;
50012;SDS011;35901;48.694;9.476;2023-09-07T06:50:02;4.60;;;4.13;;
50012;SDS011;35901;48.694;9.476;2023-09-07T06:52:34;4.03;;;3.73;;
50012;SDS011;35901;48.694;9.476;2023-09-07T06:55:00;4.20;;;3.90;;
50012;SDS011;35901;48.694;9.476;2023-09-07T06:57:26;4.50;;;4.10;;
50012;SDS011;35901;48.694;9.476;2023-09-07T06:59:53;3.87;;;3.57;;
50012;SDS011;35901;48.694;9.476;2023-09-07T07:02:19;4.17;;;3.77;;
50012;SDS011;35901;48.694;9.476;2023-09-07T07:04:45;4.23;;;3.93;;
50012;SDS011;35901;48.694;9.476;2023-09-07T07:07:13;4.87;;;4.00;;
50012;SDS011;35901;48.694;9.476;2023-09-07T07:09:38;3.80;;;3.50;;
50012;SDS011;35901;48.694;9.476;2023-09-07T07:12:04;4.17;;;3.63;;
50012;SDS011;35901;48.694;9.476;2023-09-07T07:14:30;3.90;;;3.60;;
50012;SDS011;35901;48.694;9.476;2023-09-07T07:16:56;3.80;;;3.60;;
50012;SDS011;35901;48.694;9.476;2023-09-07T07:19:22;3.87;;;3.50;;
50012;SDS011;35901;48.694;9.476;2023-09-07T07:21:51;4.00;;;3.70;;
50012;SDS011;35901;48.694;9.476;2023-09-07T07:24:17;4.20;;;3.90;;
50012;SDS011;35901;48.694;9.476;2023-09-07T07:26:43;4.33;;;3.97;;
50012;SDS011;35901;48.694;9.476;2023-09-07T07:29:09;5.17;;;4.00;;
50012;SDS011;35901;48.694;9.476;2023-09-07T07:31:35;3.73;;;3.43;;
50012;SDS011;35901;48.694;9.476;2023-09-07T07:34:01;4.23;;;3.87;;
50012;SDS011;35901;48.694;9.476;2023-09-07T07:36:27;4.77;;;4.20;;
50012;SDS011;35901;48.694;9.476;2023-09-07T07:38:53;4.77;;;3.87;;
50012;SDS011;35901;48.694;9.476;2023-09-07T07:41:20;4.37;;;3.93;;
50012;SDS011;35901;48.694;9.476;2023-09-07T07:43:45;4.33;;;3.93;;
50012;SDS011;35901;48.694;9.476;2023-09-07T07:46:11;4.30;;;3.90;;
50012;SDS011;35901;48.694;9.476;2023-09-07T07:48:40;4.63;;;4.23;;
50012;SDS011;35901;48.694;9.476;2023-09-07T07:51:07;4.73;;;4.10;;
50012;SDS011;35901;48.694;9.476;2023-09-07T07:53:39;3.37;;;3.10;;
50012;SDS011;35901;48.694;9.476;2023-09-07T07:56:05;4.70;;;4.07;;
50012;SDS011;35901;48.694;9.476;2023-09-07T07:58:31;4.70;;;4.30;;
50012;SDS011;35901;48.694;9.476;2023-09-07T08:00:56;4.60;;;4.23;;
50012;SDS011;35901;48.694;9.476;2023-09-07T08:03:27;5.17;;;4.63;;
50012;SDS011;35901;48.694;9.476;2023-09-07T08:05:53;5.40;;;4.50;;
50012;SDS011;35901;48.694;9.476;2023-09-07T08:08:20;4.70;;;4.30;;
50012;SDS011;35901;48.694;9.476;2023-09-07T08:10:47;5.10;;;4.70;;
50012;SDS011;35901;48.694;9.476;2023-09-07T08:13:13;5.07;;;4.57;;
50012;SDS011;35901;48.694;9.476;2023-09-07T08:15:39;4.90;;;4.50;;
50012;SDS011;35901;48.694;9.476;2023-09-07T08:18:05;5.43;;;4.70;;
50012;SDS011;35901;48.694;9.476;2023-09-07T08:20:32;5.00;;;4.60;;
50012;SDS011;35901;48.694;9.476;2023-09-07T08:22:58;5.13;;;4.73;;
50012;SDS011;35901;48.694;9.476;2023-09-07T08:25:25;5.53;;;5.10;;
50012;SDS011;35901;48.694;9.476;2023-09-07T08:27:53;6.03;;;4.90;;
50012;SDS011;35901;48.694;9.476;2023-09-07T08:30:22;5.53;;;5.03;;
50012;SDS011;35901;48.694;9.476;2023-09-07T08:32:50;5.87;;;5.30;;
50012;SDS011;35901;48.694;9.476;2023-09-07T08:35:16;5.87;;;5.30;;
50012;SDS011;35901;48.694;9.476;2023-09-07T08:37:42;6.20;;;5.33;;
50012;SDS011;35901;48.694;9.476;2023-09-07T08:40:08;6.00;;;5.50;;
50012;SDS011;35901;48.694;9.476;2023-09-07T08:42:36;5.60;;;5.10;;
50012;SDS011;35901;48.694;9.476;2023-09-07T08:45:02;6.37;;;4.97;;
50012;SDS011;35901;48.694;9.476;2023-09-07T08:47:32;5.37;;;4.90;;
50012;SDS011;35901;48.694;9.476;2023-09-07T08:50:02;6.43;;;4.87;;
50012;SDS011;35901;48.694;9.476;2023-09-07T08:52:31;5.53;;;4.67;;
50012;SDS011;35901;48.694;9.476;2023-09-07T08:54:58;5.33;;;4.93;;
50012;SDS011;35901;48.694;9.476;2023-09-07T08:57:26;4.90;;;4.50;;
50012;SDS011;35901;48.694;9.476;2023-09-07T08:59:52;4.90;;;4.50;;
50012;SDS011;35901;48.694;9.476;2023-09-07T09:02:18;5.53;;;5.13;;
50012;SDS011;35901;48.694;9.476;2023-09-07T09:04:44;5.47;;;4.97;;
50012;SDS011;35901;48.694;9.476;2023-09-07T09:07:09;6.10;;;5.17;;
50012;SDS011;35901;48.694;9.476;2023-09-07T09:09:35;5.27;;;4.77;;
50012;SDS011;35901;48.694;9.476;2023-09-07T09:12:10;5.37;;;4.73;;
50012;SDS011;35901;48.694;9.476;2023-09-07T09:14:37;5.50;;;4.70;;
50012;SDS011;35901;48.694;9.476;2023-09-07T09:17:04;5.10;;;4.33;;
50012;SDS011;35901;48.694;9.476;2023-09-07T09:19:33;6.10;;;4.70;;
50012;SDS011;35901;48.694;9.476;2023-09-07T09:21:59;5.00;;;4.50;;
50012;SDS011;35901;48.694;9.476;2023-09-07T09:24:25;9.17;;;4.97;;
50012;SDS011;35901;48.694;9.476;2023-09-07T09:29:45;5.13;;;4.73;;
50012;SDS011;35901;48.694;9.476;2023-09-07T09:32:13;5.37;;;4.53;;
50012;SDS011;35901;48.694;9.476;2023-09-07T09:34:39;5.97;;;4.93;;
50012;SDS011;35901;48.694;9.476;2023-09-07T09:37:12;4.80;;;4.40;;
50012;SDS011;35901;48.694;9.476;2023-09-07T09:39:38;5.37;;;4.43;;
50012;SDS011;35901;48.694;9.476;2023-09-07T09:42:05;5.10;;;4.60;;
50012;SDS011;35901;48.694;9.476;2023-09-07T09:44:31;4.93;;;4.50;;
50012;SDS011;35901;48.694;9.476;2023-09-07T09:46:57;5.80;;;4.67;;
50012;SDS011;35901;48.694;9.476;2023-09-07T09:49:24;4.67;;;4.27;;
50012;SDS011;35901;48.694;9.476;2023-09-07T09:51:51;5.00;;;4.60;;
50012;SDS011;35901;48.694;9.476;2023-09-07T09:54:17;5.50;;;4.43;;
50012;SDS011;35901;48.694;9.476;2023-09-07T10:00:37;5.18;;;4.68;;
50012;SDS011;35901;48.694;9.476;2023-09-07T10:03:10;4.90;;;4.50;;
50012;SDS011;35901;48.694;9.476;2023-09-07T10:05:50;4.63;;;4.23;;
50012;SDS011;35901;48.694;9.476;2023-09-07T10:08:18;4.32;;;4.03;;
50012;SDS011;35901;48.694;9.476;2023-09-07T10:10:48;4.70;;;4.30;;
50012;SDS011;35901;48.694;9.476;2023-09-07T10:13:30;4.40;;;4.10;;
50012;SDS011;35901;48.694;9.476;2023-09-07T10:16:00;4.90;;;4.40;;
50012;SDS011;35901;48.694;9.476;2023-09-07T10:18:33;5.35;;;4.85;;
50012;SDS011;35901;48.694;9.476;2023-09-07T10:21:00;4.50;;;4.20;;
50012;SDS011;35901;48.694;9.476;2023-09-07T10:23:43;4.53;;;4.10;;
50012;SDS011;35901;48.694;9.476;2023-09-07T10:26:15;3.47;;;3.28;;
50012;SDS011;35901;48.694;9.476;2023-09-07T10:31:31;4.95;;;4.45;;
50012;SDS011;35901;48.694;9.476;2023-09-07T10:34:07;4.40;;;3.97;;
50012;SDS011;35901;48.694;9.476;2023-09-07T10:36:34;4.30;;;3.97;;
50012;SDS011;35901;48.694;9.476;2023-09-07T10:39:02;3.70;;;3.45;;
50012;SDS011;35901;48.694;9.476;2023-09-07T10:41:39;5.55;;;4.10;;
50012;SDS011;35901;48.694;9.476;2023-09-07T10:44:06;4.57;;;4.18;;
50012;SDS011;35901;48.694;9.476;2023-09-07T10:46:32;4.40;;;4.10;;
50012;SDS011;35901;48.694;9.476;2023-09-07T10:48:58;4.60;;;4.20;;
50012;SDS011;35901;48.694;9.476;2023-09-07T10:51:24;5.10;;;4.40;;
50012;SDS011;35901;48.694;9.476;2023-09-07T10:53:50;4.30;;;3.90;;
50012;SDS011;35901;48.694;9.476;2023-09-07T10:56:15;4.13;;;3.83;;
50012;SDS011;35901;48.694;9.476;2023-09-07T10:58:42;4.68;;;4.18;;
50012;SDS011;35901;48.694;9.476;2023-09-07T11:01:09;4.43;;;4.03;;
50012;SDS011;35901;48.694;9.476;2023-09-07T11:03:35;4.50;;;4.18;;
50012;SDS011;35901;48.694;9.476;2023-09-07T11:06:23;4.13;;;3.83;;
50012;SDS011;35901;48.694;9.476;2023-09-07T11:08:48;4.10;;;3.80;;
50012;SDS011;35901;48.694;9.476;2023-09-07T11:11:14;4.20;;;3.80;;
50012;SDS011;35901;48.694;9.476;2023-09-07T11:13:40;4.00;;;3.70;;
50012;SDS011;35901;48.694;9.476;2023-09-07T11:16:09;4.30;;;4.00;;
50012;SDS011;35901;48.694;9.476;2023-09-07T11:18:35;3.83;;;3.63;;
50012;SDS011;35901;48.694;9.476;2023-09-07T11:21:01;4.18;;;3.78;;
50012;SDS011;35901;48.694;9.476;2023-09-07T11:23:32;4.32;;;4.00;;
50012;SDS011;35901;48.694;9.476;2023-09-07T11:26:07;5.25;;;3.88;;
50012;SDS011;35901;48.694;9.476;2023-09-07T11:28:33;5.07;;;4.22;;
50012;SDS011;35901;48.694;9.476;2023-09-07T11:34:54;5.88;;;3.95;;
50012;SDS011;35901;48.694;9.476;2023-09-07T11:37:23;4.50;;;4.10;;
50012;SDS011;35901;48.694;9.476;2023-09-07T11:39:50;4.15;;;3.75;;
50012;SDS011;35901;48.694;9.476;2023-09-07T11:42:16;4.03;;;3.58;;
50012;SDS011;35901;48.694;9.476;2023-09-07T11:44:42;4.25;;;3.92;;
50012;SDS011;35901;48.694;9.476;2023-09-07T11:47:08;3.95;;;3.60;;
50012;SDS011;35901;48.694;9.476;2023-09-07T11:49:34;4.18;;;3.88;;
50012;SDS011;35901;48.694;9.476;2023-09-07T11:51:59;3.95;;;3.55;;
50012;SDS011;35901;48.694;9.476;2023-09-07T11:54:25;4.25;;;3.85;;
50012;SDS011;35901;48.694;9.476;2023-09-07T11:56:52;5.53;;;4.03;;
50012;SDS011;35901;48.694;9.476;2023-09-07T11:59:18;5.53;;;4.13;;
50012;SDS011;35901;48.694;9.476;2023-09-07T12:04:46;4.43;;;4.03;;
50012;SDS011;35901;48.694;9.476;2023-09-07T12:07:12;4.53;;;4.13;;
50012;SDS011;35901;48.694;9.476;2023-09-07T12:09:38;4.40;;;3.95;;
50012;SDS011;35901;48.694;9.476;2023-09-07T12:12:04;3.85;;;3.55;;
50012;SDS011;35901;48.694;9.476;2023-09-07T12:14:30;4.18;;;3.88;;
50012;SDS011;35901;48.694;9.476;2023-09-07T12:16:56;4.10;;;3.67;;
50012;SDS011;35901;48.694;9.476;2023-09-07T12:19:22;4.30;;;3.90;;
50012;SDS011;35901;48.694;9.476;2023-09-07T12:21:47;4.38;;;3.80;;
50012;SDS011;35901;48.694;9.476;2023-09-07T12:24:13;4.68;;;3.80;;
50012;SDS011;35901;48.694;9.476;2023-09-07T12:26:39;3.90;;;3.60;;
50012;SDS011;35901;48.694;9.476;2023-09-07T12:29:04;3.83;;;3.63;;
50012;SDS011;35901;48.694;9.476;2023-09-07T12:34:57;4.07;;;3.67;;
50012;SDS011;35901;48.694;9.476;2023-09-07T12:37:22;3.92;;;3.53;;
50012;SDS011;35901;48.694;9.476;2023-09-07T12:39:49;3.90;;;3.60;;
50012;SDS011;35901;48.694;9.476;2023-09-07T12:42:16;4.53;;;3.25;;
50012;SDS011;35901;48.694;9.476;2023-09-07T12:44:43;3.83;;;3.47;;
50012;SDS011;35901;48.694;9.476;2023-09-07T12:47:09;3.78;;;3.58;;
50012;SDS011;35901;48.694;9.476;2023-09-07T12:49:34;7.15;;;3.97;;
50012;SDS011;35901;48.694;9.476;2023-09-07T12:52:00;17.85;;;4.65;;
50012;SDS011;35901;48.694;9.476;2023-09-07T12:54:28;7.28;;;4.00;;
50012;SDS011;35901;48.694;9.476;2023-09-07T12:56:53;3.80;;;3.50;;
50012;SDS011;35901;48.694;9.476;2023-09-07T12:59:19;3.90;;;3.60;;
50012;SDS011;35901;48.694;9.476;2023-09-07T13:01:47;4.22;;;3.75;;
50012;SDS011;35901;48.694;9.476;2023-09-07T13:04:12;3.47;;;3.20;;
50012;SDS011;35901;48.694;9.476;2023-09-07T13:06:38;3.90;;;3.60;;
50012;SDS011;35901;48.694;9.476;2023-09-07T13:09:04;3.75;;;3.45;;
50012;SDS011;35901;48.694;9.476;2023-09-07T13:11:30;3.65;;;3.45;;
50012;SDS011;35901;48.694;9.476;2023-09-07T13:13:56;4.30;;;4.00;;
50012;SDS011;35901;48.694;9.476;2023-09-07T13:16:21;3.90;;;3.60;;
50012;SDS011;35901;48.694;9.476;2023-09-07T13:18:47;3.95;;;3.40;;
50012;SDS011;35901;48.694;9.476;2023-09-07T13:21:12;4.38;;;3.33;;
50012;SDS011;35901;48.694;9.476;2023-09-07T13:23:38;3.38;;;3.15;;
50012;SDS011;35901;48.694;9.476;2023-09-07T13:26:06;3.40;;;3.17;;
50012;SDS011;35901;48.694;9.476;2023-09-07T13:28:32;3.58;;;3.33;;
50012;SDS011;35901;48.694;9.476;2023-09-07T13:30:57;4.57;;;3.25;;
50012;SDS011;35901;48.694;9.476;2023-09-07T13:33:25;3.78;;;3.47;;
50012;SDS011;35901;48.694;9.476;2023-09-07T13:35:50;4.47;;;3.47;;
50012;SDS011;35901;48.694;9.476;2023-09-07T13:38:16;3.83;;;3.50;;
50012;SDS011;35901;48.694;9.476;2023-09-07T13:40:42;4.28;;;3.40;;
50012;SDS011;35901;48.694;9.476;2023-09-07T13:43:08;4.22;;;3.75;;
50012;SDS011;35901;48.694;9.476;2023-09-07T13:45:33;3.90;;;3.60;;
50012;SDS011;35901;48.694;9.476;2023-09-07T13:47:59;3.60;;;3.30;;
50012;SDS011;35901;48.694;9.476;2023-09-07T13:50:35;3.88;;;3.42;;
50012;SDS011;35901;48.694;9.476;2023-09-07T13:53:00;3.55;;;3.35;;
50012;SDS011;35901;48.694;9.476;2023-09-07T13:55:26;3.72;;;3.47;;
50012;SDS011;35901;48.694;9.476;2023-09-07T13:57:52;3.88;;;3.58;;
50012;SDS011;35901;48.694;9.476;2023-09-07T14:00:18;3.60;;;3.30;;
50012;SDS011;35901;48.694;9.476;2023-09-07T14:02:49;3.40;;;3.10;;
50012;SDS011;35901;48.694;9.476;2023-09-07T14:05:15;3.92;;;3.60;;
50012;SDS011;35901;48.694;9.476;2023-09-07T14:07:41;3.92;;;3.55;;
50012;SDS011;35901;48.694;9.476;2023-09-07T14:10:07;3.83;;;3.50;;
50012;SDS011;35901;48.694;9.476;2023-09-07T14:12:33;3.80;;;3.50;;
50012;SDS011;35901;48.694;9.476;2023-09-07T14:14:58;4.32;;;3.88;;
50012;SDS011;35901;48.694;9.476;2023-09-07T14:17:24;3.88;;;3.50;;
50012;SDS011;35901;48.694;9.476;2023-09-07T14:19:50;3.78;;;3.38;;
50012;SDS011;35901;48.694;9.476;2023-09-07T14:22:15;3.75;;;3.45;;
50012;SDS011;35901;48.694;9.476;2023-09-07T14:24:41;3.25;;;3.05;;
50012;SDS011;35901;48.694;9.476;2023-09-07T14:27:07;3.85;;;3.40;;
50012;SDS011;35901;48.694;9.476;2023-09-07T14:29:34;4.30;;;3.90;;
50012;SDS011;35901;48.694;9.476;2023-09-07T14:32:00;3.88;;;3.55;;
50012;SDS011;35901;48.694;9.476;2023-09-07T14:37:45;32.45;;;9.70;;
50012;SDS011;35901;48.694;9.476;2023-09-07T14:40:10;4.00;;;3.70;;
50012;SDS011;35901;48.694;9.476;2023-09-07T14:42:38;3.70;;;3.40;;
50012;SDS011;35901;48.694;9.476;2023-09-07T14:45:04;3.90;;;3.60;;
50012;SDS011;35901;48.694;9.476;2023-09-07T14:47:30;3.72;;;3.38;;
50012;SDS011;35901;48.694;9.476;2023-09-07T14:49:56;4.05;;;3.60;;
50012;SDS011;35901;48.694;9.476;2023-09-07T14:52:22;4.03;;;3.60;;
50012;SDS011;35901;48.694;9.476;2023-09-07T14:54:51;3.58;;;3.38;;
50012;SDS011;35901;48.694;9.476;2023-09-07T14:57:16;4.05;;;3.45;;
50012;SDS011;35901;48.694;9.476;2023-09-07T14:59:42;4.15;;;3.80;;
50012;SDS011;35901;48.694;9.476;2023-09-07T15:02:08;4.20;;;3.80;;
50012;SDS011;35901;48.694;9.476;2023-09-07T15:04:33;5.35;;;3.47;;
50012;SDS011;35901;48.694;9.476;2023-09-07T15:07:00;4.05;;;3.72;;
50012;SDS011;35901;48.694;9.476;2023-09-07T15:09:26;3.88;;;3.55;;
50012;SDS011;35901;48.694;9.476;2023-09-07T15:11:52;4.28;;;3.80;;
50012;SDS011;35901;48.694;9.476;2023-09-07T15:14:18;4.35;;;3.75;;